createdAt,value
2016-03-28T12:33:45.802Z,175
2016-03-28T12:33:57.864Z,180
2016-03-28T12:34:58.086Z,185
2016-03-28T12:35:58.042Z,180
2016-03-28T12:36:57.889Z,170
2016-03-28T12:37:58.469Z,170
2016-03-28T12:38:58.050Z,190
2016-03-28T12:39:58.052Z,200
2016-03-28T12:40:58.055Z,205
2016-03-28T12:41:58.055Z,190
2016-03-28T12:42:58.044Z,170
2016-03-28T12:43:58.034Z,150
2016-03-28T12:44:58.022Z,150
2016-03-28T12:45:58.012Z,150
2016-03-28T12:46:58.003Z,135
2016-03-28T12:47:58.001Z,125
2016-03-28T12:48:57.999Z,135
2016-03-28T12:49:58.014Z,135
2016-03-28T12:50:57.995Z,125
2016-03-28T12:51:58.010Z,130
2016-03-28T12:52:58.104Z,150
2016-03-28T12:53:57.995Z,175
2016-03-28T12:54:57.996Z,195
2016-03-28T12:55:58.014Z,205
2016-03-28T12:56:58.014Z,200
2016-03-28T12:57:58.000Z,180
2016-03-28T12:58:58.019Z,170
2016-03-28T12:59:58.022Z,175
2016-03-28T13:00:58.024Z,175
2016-03-28T13:01:58.041Z,180
2016-03-28T13:02:58.029Z,190
2016-03-28T13:03:58.031Z,180
2016-03-28T13:04:58.033Z,165
2016-03-28T13:05:58.036Z,150
2016-03-28T13:06:58.053Z,140
2016-03-28T13:07:58.369Z,135
2016-03-28T13:08:58.058Z,150
2016-03-28T13:09:58.061Z,165
2016-03-28T13:10:58.064Z,155
2016-03-28T13:11:58.082Z,160
2016-03-28T13:12:58.085Z,160
2016-03-28T13:13:58.072Z,160
2016-03-28T13:14:58.090Z,150
2016-03-28T13:15:58.077Z,145
2016-03-28T13:16:58.080Z,145
2016-03-28T13:17:58.098Z,130
2016-03-28T13:18:58.085Z,130
2016-03-28T13:19:57.948Z,130
2016-03-28T13:20:58.091Z,135
2016-03-28T13:21:58.109Z,150
2016-03-28T13:22:58.112Z,160
2016-03-28T13:23:58.114Z,165
2016-03-28T13:24:58.117Z,170
2016-03-28T13:25:58.120Z,170
2016-03-28T13:26:58.106Z,165
2016-03-28T13:27:58.125Z,155
2016-03-28T13:28:58.128Z,160
2016-03-28T13:29:58.130Z,170
2016-03-28T13:30:58.133Z,155
2016-03-28T13:31:58.152Z,155
2016-03-28T13:32:58.138Z,150
2016-03-28T13:33:58.141Z,145
2016-03-28T13:34:58.144Z,145
2016-03-28T13:35:58.147Z,140
2016-03-28T13:36:58.165Z,155
2016-03-28T13:37:58.168Z,175
2016-03-28T13:38:58.171Z,170
2016-03-28T13:39:58.173Z,175
2016-03-28T13:40:58.176Z,170
2016-03-28T13:41:58.179Z,165
2016-03-28T13:42:58.181Z,155
2016-03-28T13:43:58.184Z,145
2016-03-28T13:44:58.187Z,135
2016-03-28T13:45:58.190Z,130
2016-03-28T13:46:58.192Z,125
2016-03-28T13:47:58.210Z,130
2016-03-28T13:48:58.212Z,125
2016-03-28T13:49:58.200Z,110
2016-03-28T13:50:58.218Z,110
2016-03-28T13:51:58.205Z,110
2016-03-28T13:52:58.209Z,110
2016-03-28T13:53:58.320Z,100
2016-03-28T13:54:58.214Z,100
2016-03-28T13:55:58.217Z,100
2016-03-28T13:56:58.219Z,100
2016-03-28T13:57:58.222Z,105
2016-03-28T13:58:58.224Z,115
2016-03-28T13:59:58.227Z,130
2016-03-28T14:00:58.249Z,145
2016-03-28T14:01:58.236Z,140
2016-03-28T14:02:58.255Z,150
2016-03-28T14:03:58.257Z,160
2016-03-28T14:04:58.260Z,145
2016-03-28T14:05:58.263Z,140
2016-03-28T14:06:58.283Z,150
2016-03-28T14:07:58.270Z,140
2016-03-28T14:08:58.272Z,130
2016-03-28T14:09:58.275Z,125
2016-03-28T14:10:58.293Z,110
2016-03-28T14:11:58.264Z,105
2016-03-28T14:12:58.283Z,105
2016-03-28T14:13:58.302Z,105
2016-03-28T14:14:58.304Z,110
2016-03-28T14:15:58.291Z,105
2016-03-28T14:16:58.278Z,110
2016-03-28T14:17:58.280Z,110
2016-03-28T14:18:58.299Z,110
2016-03-28T14:19:58.302Z,120
2016-03-28T14:20:58.164Z,125
2016-03-28T14:21:58.339Z,125
2016-03-28T14:22:58.310Z,130
2016-03-28T14:23:58.329Z,130
2016-03-28T14:24:58.316Z,120
2016-03-28T14:25:58.318Z,105
2016-03-28T14:26:58.337Z,100
2016-03-28T14:27:58.324Z,100
2016-03-28T14:28:58.342Z,95
2016-03-28T14:29:58.329Z,85
2016-03-28T14:30:58.348Z,85
2016-03-28T14:31:58.334Z,90
2016-03-28T14:32:58.337Z,90
2016-03-28T14:33:58.356Z,85
2016-03-28T14:34:58.358Z,85
2016-03-28T14:35:58.345Z,90
2016-03-28T14:36:58.364Z,90
2016-03-28T14:37:58.367Z,90
2016-03-28T14:38:58.369Z,90
2016-03-28T14:39:58.387Z,95
2016-03-28T14:40:58.375Z,90
2016-03-28T14:41:58.377Z,85
2016-03-28T14:42:58.692Z,70
2016-03-28T14:43:58.383Z,75
2016-03-28T14:44:58.385Z,80
2016-03-28T14:45:58.372Z,75
2016-03-28T14:46:58.391Z,80
2016-03-28T14:47:58.408Z,80
2016-03-28T14:48:58.239Z,85
2016-03-28T14:49:58.399Z,80
2016-03-28T14:50:58.401Z,75
2016-03-28T14:51:58.405Z,70
2016-03-28T14:52:58.407Z,70
2016-03-28T14:53:58.410Z,70
2016-03-28T14:54:58.427Z,70
2016-03-28T14:55:58.430Z,70
2016-03-28T14:56:58.418Z,70
2016-03-28T14:57:58.436Z,70
2016-03-28T14:58:58.438Z,70
2016-03-28T14:59:58.441Z,70
2016-03-28T15:00:58.444Z,70
2016-03-28T15:01:58.431Z,70
2016-03-28T15:02:58.449Z,70
2016-03-28T15:03:58.451Z,70
2016-03-28T15:04:58.454Z,70
2016-03-28T15:05:58.457Z,65
2016-03-28T15:06:58.459Z,65
2016-03-28T15:07:58.493Z,65
2016-03-28T15:08:58.450Z,65
2016-03-28T15:09:58.452Z,70
2016-03-28T15:10:58.470Z,70
2016-03-28T15:11:58.473Z,70
2016-03-28T15:12:58.475Z,65
2016-03-28T15:13:58.478Z,65
2016-03-28T15:14:58.481Z,65
2016-03-28T15:15:58.484Z,65
2016-03-28T15:16:58.486Z,65
2016-03-28T15:17:58.489Z,65
2016-03-28T15:18:58.680Z,65
2016-03-28T15:20:58.497Z,65
2016-03-28T15:21:58.500Z,65
2016-03-28T15:22:58.502Z,65
2016-03-28T15:23:58.505Z,65
2016-03-28T15:24:58.493Z,65
2016-03-28T15:25:58.495Z,65
2016-03-28T15:26:58.513Z,65
2016-03-28T15:27:58.516Z,65
2016-03-28T15:28:58.379Z,65
2016-03-28T15:29:58.521Z,65
2016-03-28T15:30:58.524Z,65
2016-03-28T15:31:58.527Z,65
2016-03-28T15:32:58.529Z,65
2016-03-28T15:33:58.532Z,65
2016-03-28T15:34:58.910Z,65
2016-03-28T15:35:58.537Z,65
2016-03-28T15:36:58.525Z,65
2016-03-28T15:37:58.543Z,60
2016-03-28T15:38:58.655Z,60
2016-03-28T15:39:58.548Z,65
2016-03-28T15:40:58.551Z,55
2016-03-28T15:41:58.538Z,65
2016-03-28T15:42:58.556Z,65
2016-03-28T15:43:58.559Z,65
2016-03-28T15:44:58.578Z,60
2016-03-28T15:45:58.564Z,60
2016-03-28T15:46:58.567Z,60
2016-03-28T15:47:58.570Z,60
2016-03-28T15:48:58.588Z,65
2016-03-28T15:49:58.575Z,65
2016-03-28T15:50:58.578Z,65
2016-03-28T15:51:58.580Z,60
2016-03-28T15:52:58.568Z,60
2016-03-28T15:53:58.571Z,60
2016-03-28T15:54:58.588Z,60
2016-03-28T15:55:58.576Z,60
2016-03-28T15:56:58.579Z,60
2016-03-28T15:57:58.596Z,60
2016-03-28T15:58:58.584Z,60
2016-03-28T15:59:58.633Z,60
2016-03-28T16:00:58.605Z,60
2016-03-28T16:01:58.607Z,60
2016-03-28T16:02:58.438Z,55
2016-03-28T16:03:58.598Z,55
2016-03-28T16:04:58.600Z,55
2016-03-28T16:05:58.603Z,55
2016-03-28T16:06:58.481Z,55
2016-03-28T16:07:58.623Z,55
2016-03-28T16:08:58.642Z,55
2016-03-28T16:09:58.629Z,55
2016-03-28T16:10:58.616Z,55
2016-03-28T16:11:58.619Z,55
2016-03-28T16:12:58.622Z,55
2016-03-28T16:13:58.624Z,55
2016-03-28T16:14:58.627Z,55
2016-03-28T16:15:58.630Z,55
2016-03-28T16:16:58.633Z,55
2016-03-28T16:17:58.635Z,55
2016-03-28T16:18:58.638Z,50
2016-03-28T16:19:58.625Z,50
2016-03-28T16:20:58.643Z,50
2016-03-28T16:21:58.630Z,50
2016-03-28T16:22:58.649Z,50
2016-03-28T16:23:58.729Z,50
2016-03-28T16:24:58.638Z,50
2016-03-28T16:25:58.672Z,50
2016-03-28T16:26:58.643Z,50
2016-03-28T16:27:58.662Z,50
2016-03-28T16:28:58.665Z,50
2016-03-28T16:29:58.651Z,50
2016-03-28T16:30:58.654Z,50
2016-03-28T16:31:58.657Z,50
2016-03-28T16:32:58.660Z,50
2016-03-28T16:33:58.709Z,50
2016-03-28T16:34:58.649Z,45
2016-03-28T16:35:58.668Z,45
2016-03-28T16:36:58.670Z,45
2016-03-28T16:37:58.673Z,45
2016-03-28T16:38:58.723Z,45
2016-03-28T16:39:58.695Z,45
2016-03-28T16:40:58.681Z,45
2016-03-28T16:41:58.684Z,45
2016-03-28T16:42:58.686Z,40
2016-03-28T16:43:58.689Z,45
2016-03-28T16:44:58.692Z,45
2016-03-28T16:45:58.696Z,45
2016-03-28T16:46:58.683Z,45
2016-03-28T16:47:58.701Z,40
2016-03-28T16:48:58.688Z,40
2016-03-28T16:49:58.706Z,40
2016-03-28T16:50:58.709Z,40
2016-03-28T16:51:58.711Z,40
2016-03-28T16:52:58.558Z,40
2016-03-28T16:53:58.826Z,40
2016-03-28T16:54:58.704Z,40
2016-03-28T16:55:58.707Z,40
2016-03-28T16:56:58.726Z,40
2016-03-28T16:57:58.712Z,35
2016-03-28T16:58:58.715Z,35
2016-03-28T17:00:02.625Z,35
2016-03-28T17:00:58.736Z,35
2016-03-28T17:01:58.723Z,35
2016-03-28T17:02:58.725Z,35
2016-03-28T17:03:58.728Z,35
2016-03-28T17:04:58.730Z,30
2016-03-28T17:05:58.719Z,30
2016-03-28T17:06:58.596Z,30
2016-03-28T17:07:58.427Z,30
2016-03-28T17:08:58.758Z,30
2016-03-28T17:09:58.729Z,30
2016-03-28T17:10:58.732Z,30
2016-03-28T17:11:58.735Z,30
2016-03-28T17:12:58.737Z,25
2016-03-28T17:13:58.740Z,25
2016-03-28T17:14:58.743Z,25
2016-03-28T17:15:58.745Z,25
2016-03-28T17:16:58.749Z,25
2016-03-28T17:17:58.751Z,25
2016-03-28T17:18:58.754Z,25
2016-03-28T17:19:58.757Z,20
2016-03-28T17:20:59.259Z,20
2016-03-28T17:21:58.449Z,20
2016-03-28T17:22:58.812Z,20
2016-03-28T17:24:06.172Z,20
2016-03-28T17:24:58.612Z,15
2016-03-28T17:25:58.772Z,15
2016-03-28T17:26:58.774Z,15
2016-03-28T17:27:58.792Z,15
2016-03-28T17:28:58.764Z,15
2016-03-28T17:29:58.782Z,15
2016-03-28T17:30:58.769Z,10
2016-03-28T17:31:58.772Z,10
2016-03-28T17:32:58.790Z,10
2016-03-28T17:33:58.777Z,10
2016-03-28T17:34:58.780Z,10
2016-03-28T17:35:59.142Z,10
2016-03-28T17:36:58.769Z,5
2016-03-28T17:37:58.788Z,5
2016-03-28T17:38:58.807Z,5
2016-03-28T17:39:58.809Z,5
2016-03-28T17:40:58.796Z,5
2016-03-28T17:41:58.799Z,5
2016-03-28T17:42:58.801Z,5
2016-03-28T17:43:58.788Z,5
2016-03-28T17:44:58.791Z,0
2016-03-28T17:45:58.810Z,0
2016-03-28T17:46:58.796Z,0
2016-03-28T17:47:58.799Z,0
2016-03-28T17:48:58.786Z,0
2016-03-28T17:49:58.804Z,0
2016-03-28T17:50:58.807Z,0
2016-03-28T17:51:58.794Z,0
2016-03-28T17:52:58.796Z,0
2016-03-28T17:53:58.799Z,0
2016-03-28T17:54:58.802Z,0
2016-03-28T17:55:58.805Z,0
2016-03-28T17:56:58.808Z,0
2016-03-28T17:57:58.810Z,0
2016-03-28T17:58:58.813Z,0
2016-03-28T17:59:58.816Z,0
2016-03-28T18:00:58.834Z,0
2016-03-28T18:01:58.836Z,0
2016-03-28T18:02:58.824Z,0
2016-03-28T18:03:58.827Z,0
2016-03-28T18:04:58.829Z,0
2016-03-28T18:05:58.816Z,0
2016-03-28T18:06:58.662Z,0
2016-03-28T18:07:58.821Z,0
2016-03-28T18:08:58.824Z,0
2016-03-28T18:09:58.842Z,0
2016-03-28T18:10:58.829Z,0
2016-03-28T18:11:58.832Z,0
2016-03-28T18:12:58.835Z,0
2016-03-28T18:13:58.822Z,0
2016-03-28T18:14:58.825Z,0
2016-03-28T18:15:58.687Z,0
2016-03-28T18:16:58.845Z,0
2016-03-28T18:17:58.833Z,0
2016-03-28T18:18:58.836Z,0
2016-03-28T18:19:58.839Z,0
2016-03-28T18:20:58.841Z,0
2016-03-28T18:21:58.844Z,0
2016-03-28T18:22:58.847Z,0
2016-03-28T18:23:58.834Z,0
2016-03-28T18:24:58.836Z,0
2016-03-28T18:25:58.855Z,0
2016-03-28T18:26:58.842Z,0
2016-03-28T18:27:58.860Z,0
2016-03-28T18:28:58.847Z,0
2016-03-28T18:29:58.850Z,0
2016-03-28T18:30:58.852Z,0
2016-03-28T18:31:58.855Z,0
2016-03-28T18:32:58.858Z,0
2016-03-28T18:33:58.860Z,0
2016-03-28T18:34:58.847Z,0
2016-03-28T18:35:58.850Z,0
2016-03-28T18:36:58.884Z,0
2016-03-28T18:37:58.871Z,0
2016-03-28T18:38:58.842Z,0
2016-03-28T18:39:58.861Z,0
2016-03-28T18:40:58.863Z,0
2016-03-28T18:41:58.694Z,0
2016-03-28T18:42:58.868Z,0
2016-03-28T18:43:58.856Z,0
2016-03-28T18:44:58.859Z,0
2016-03-28T18:45:58.861Z,0
2016-03-28T18:46:58.864Z,0
2016-03-28T18:47:58.867Z,0
2016-03-28T18:48:58.885Z,0
2016-03-28T18:49:58.873Z,0
2016-03-28T18:50:58.968Z,0
2016-03-28T18:51:59.206Z,0
2016-03-28T18:52:58.864Z,0
2016-03-28T18:53:58.867Z,0
2016-03-28T18:54:58.870Z,0
2016-03-28T18:55:58.888Z,0
2016-03-28T18:56:58.875Z,0
2016-03-28T18:57:58.878Z,0
2016-03-28T18:58:58.897Z,0
2016-03-28T18:59:58.883Z,0
2016-03-28T19:00:58.870Z,0
2016-03-28T19:01:58.888Z,0
2016-03-28T19:02:58.892Z,0
2016-03-28T19:03:58.894Z,0
2016-03-28T19:04:58.880Z,0
2016-03-28T19:05:58.900Z,0
2016-03-28T19:06:58.886Z,0
2016-03-28T19:07:58.916Z,0
2016-03-28T19:08:58.889Z,0
2016-03-28T19:09:58.719Z,0
2016-03-28T19:10:58.894Z,0
2016-03-28T19:11:58.897Z,0
2016-03-28T19:12:58.883Z,0
2016-03-28T19:13:58.886Z,0
2016-03-28T19:14:58.919Z,0
2016-03-28T19:15:58.891Z,0
2016-03-28T19:16:58.893Z,0
2016-03-28T19:17:58.897Z,0
2016-03-28T19:18:58.899Z,0
2016-03-28T19:19:58.902Z,0
2016-03-28T19:20:58.905Z,0
2016-03-28T19:21:58.891Z,0
2016-03-28T19:22:58.894Z,0
2016-03-28T19:23:58.913Z,0
2016-03-28T19:24:58.743Z,0
2016-03-28T19:25:58.902Z,0
2016-03-28T19:26:58.905Z,0
2016-03-28T19:27:58.923Z,0
2016-03-28T19:28:58.943Z,0
2016-03-28T19:29:58.913Z,0
2016-03-28T19:30:58.915Z,0
2016-03-28T19:31:58.935Z,0
2016-03-28T19:32:58.921Z,0
2016-03-28T19:33:58.909Z,0
2016-03-28T19:34:58.912Z,0
2016-03-28T19:35:58.945Z,0
2016-03-28T19:36:58.932Z,0
2016-03-28T19:37:58.920Z,0
2016-03-28T19:38:58.937Z,0
2016-03-28T19:39:58.892Z,0
2016-03-28T19:40:58.912Z,0
2016-03-28T19:41:58.961Z,0
2016-03-28T19:42:58.916Z,0
2016-03-28T19:43:58.951Z,0
2016-03-28T19:44:58.922Z,0
2016-03-28T19:45:58.941Z,0
2016-03-28T19:46:58.756Z,0
2016-03-28T19:47:58.914Z,0
2016-03-28T19:48:58.917Z,0
2016-03-28T19:49:58.936Z,0
2016-03-28T19:50:58.938Z,0
2016-03-28T19:51:58.941Z,0
2016-03-28T19:52:58.960Z,0
2016-03-28T19:53:58.931Z,0
2016-03-28T19:54:58.793Z,0
2016-03-28T19:55:58.936Z,0
2016-03-28T19:56:58.939Z,0
2016-03-28T19:57:58.941Z,0
2016-03-28T19:58:58.929Z,0
2016-03-28T19:59:58.946Z,0
2016-03-28T20:00:58.949Z,0
2016-03-28T20:01:58.937Z,0
2016-03-28T20:02:58.924Z,0
2016-03-28T20:03:58.926Z,0
2016-03-28T20:04:58.945Z,0
2016-03-28T20:05:58.932Z,0
2016-03-28T20:06:58.934Z,0
2016-03-28T20:07:58.937Z,0
2016-03-28T20:08:58.956Z,0
2016-03-28T20:09:58.958Z,0
2016-03-28T20:10:58.945Z,0
2016-03-28T20:11:58.948Z,0
2016-03-28T20:12:58.951Z,0
2016-03-28T20:13:58.939Z,0
2016-03-28T20:14:58.956Z,0
2016-03-28T20:15:58.943Z,0
2016-03-28T20:16:58.947Z,0
2016-03-28T20:17:58.949Z,0
2016-03-28T20:18:58.951Z,0
2016-03-28T20:19:58.954Z,0
2016-03-28T20:20:58.957Z,0
2016-03-28T20:21:58.960Z,0
2016-03-28T20:22:58.963Z,0
2016-03-28T20:23:58.949Z,0
2016-03-28T20:24:58.967Z,0
2016-03-28T20:25:58.955Z,0
2016-03-28T20:26:58.957Z,0
2016-03-28T20:27:58.960Z,0
2016-03-28T20:28:58.962Z,0
2016-03-28T20:29:58.949Z,0
2016-03-28T20:30:58.968Z,0
2016-03-28T20:31:58.971Z,0
2016-03-28T20:32:58.973Z,0
2016-03-28T20:33:58.960Z,0
2016-03-28T20:34:58.963Z,0
2016-03-28T20:35:58.965Z,0
2016-03-28T20:36:58.984Z,0
2016-03-28T20:37:58.970Z,0
2016-03-28T20:38:58.974Z,0
2016-03-28T20:39:58.976Z,0
2016-03-28T20:40:58.964Z,0
2016-03-28T20:41:58.951Z,0
2016-03-28T20:42:58.969Z,0
2016-03-28T20:43:58.972Z,0
2016-03-28T20:44:58.975Z,0
2016-03-28T20:45:58.977Z,0
2016-03-28T20:46:58.979Z,0
2016-03-28T20:47:58.966Z,0
2016-03-28T20:48:58.969Z,0
2016-03-28T20:49:58.972Z,0
2016-03-28T20:50:58.975Z,0
2016-03-28T20:51:58.977Z,0
2016-03-28T20:52:58.980Z,0
2016-03-28T20:53:58.983Z,0
2016-03-28T20:54:59.063Z,0
2016-03-28T20:55:58.988Z,0
2016-03-28T20:56:58.991Z,0
2016-03-28T20:57:58.977Z,0
2016-03-28T20:58:58.981Z,0
2016-03-28T20:59:58.968Z,0
2016-03-28T21:00:58.985Z,0
2016-03-28T21:01:58.974Z,0
2016-03-28T21:02:58.991Z,0
2016-03-28T21:03:58.979Z,0
2016-03-28T21:04:58.981Z,0
2016-03-28T21:05:58.984Z,0
2016-03-28T21:06:58.986Z,0
2016-03-28T21:07:58.990Z,0
2016-03-28T21:08:58.992Z,0
2016-03-28T21:09:59.088Z,0
2016-03-28T21:10:58.981Z,0
2016-03-28T21:11:58.984Z,0
2016-03-28T21:12:58.987Z,0
2016-03-28T21:13:58.990Z,0
2016-03-28T21:14:58.992Z,0
2016-03-28T21:15:58.836Z,0
2016-03-28T21:16:58.998Z,0
2016-03-28T21:17:59.000Z,0
2016-03-28T21:18:59.003Z,0
2016-03-28T21:19:59.005Z,0
2016-03-28T21:20:58.994Z,0
2016-03-28T21:21:58.853Z,0
2016-03-28T21:22:59.013Z,0
2016-03-28T21:23:59.001Z,0
2016-03-28T21:24:59.035Z,0
2016-03-28T21:25:59.004Z,0
2016-03-28T21:26:59.007Z,0
2016-03-28T21:27:58.853Z,0
2016-03-28T21:28:58.996Z,0
2016-03-28T21:29:58.999Z,0
2016-03-28T21:30:59.002Z,0
2016-03-28T21:31:59.004Z,0
2016-03-28T21:32:59.006Z,0
2016-03-28T21:33:59.009Z,0
2016-03-28T21:34:59.012Z,0
2016-03-28T21:35:58.999Z,0
2016-03-28T21:36:59.002Z,0
2016-03-28T21:37:59.004Z,0
2016-03-28T21:38:59.007Z,0
2016-03-28T21:39:59.042Z,0
2016-03-28T21:40:58.997Z,0
2016-03-28T21:41:59.015Z,0
2016-03-28T21:42:59.002Z,0
2016-03-28T21:43:59.021Z,0
2016-03-28T21:44:59.008Z,0
2016-03-28T21:45:59.011Z,0
2016-03-28T21:46:59.264Z,0
2016-03-28T21:47:59.016Z,0
2016-03-28T21:48:59.014Z,0
2016-03-28T21:49:59.008Z,0
2016-03-28T21:50:59.002Z,0
2016-03-28T21:51:58.979Z,0
2016-03-28T21:52:58.973Z,0
2016-03-28T21:53:58.969Z,0
2016-03-28T21:54:59.000Z,0
2016-03-28T21:55:58.968Z,0
2016-03-28T21:56:58.967Z,0
2016-03-28T21:57:58.968Z,0
2016-03-28T21:58:58.968Z,0
2016-03-28T21:59:58.953Z,0
2016-03-28T22:00:58.970Z,0
2016-03-28T22:01:58.972Z,0
2016-03-28T22:02:58.974Z,0
2016-03-28T22:03:58.960Z,0
2016-03-28T22:04:58.979Z,0
2016-03-28T22:05:58.981Z,0
2016-03-28T22:06:58.966Z,0
2016-03-28T22:07:58.954Z,0
2016-03-28T22:08:58.957Z,0
2016-03-28T22:09:58.959Z,0
2016-03-28T22:10:58.961Z,0
2016-03-28T22:11:58.947Z,0
2016-03-28T22:12:58.949Z,0
2016-03-28T22:13:58.969Z,0
2016-03-28T22:14:58.971Z,0
2016-03-28T22:15:58.958Z,0
2016-03-28T22:16:58.960Z,0
2016-03-28T22:17:58.963Z,0
2016-03-28T22:18:58.965Z,0
2016-03-28T22:19:58.968Z,0
2016-03-28T22:20:58.955Z,0
2016-03-28T22:21:58.974Z,0
2016-03-28T22:22:58.961Z,0
2016-03-28T22:23:58.964Z,0
2016-03-28T22:24:58.967Z,0
2016-03-28T22:25:58.969Z,0
2016-03-28T22:26:58.972Z,0
2016-03-28T22:27:58.959Z,0
2016-03-28T22:28:58.961Z,0
2016-03-28T22:29:58.964Z,0
2016-03-28T22:30:58.967Z,0
2016-03-28T22:31:58.986Z,0
2016-03-28T22:32:58.972Z,0
2016-03-28T22:33:58.975Z,0
2016-03-28T22:34:58.978Z,0
2016-03-28T22:35:58.980Z,0
2016-03-28T22:36:58.983Z,0
2016-03-28T22:37:58.970Z,0
2016-03-28T22:38:58.972Z,0
2016-03-28T22:39:58.975Z,0
2016-03-28T22:40:58.978Z,0
2016-03-28T22:41:58.980Z,0
2016-03-28T22:42:58.968Z,0
2016-03-28T22:43:58.955Z,0
2016-03-28T22:44:58.988Z,0
2016-03-28T22:45:58.976Z,0
2016-03-28T22:46:58.979Z,0
2016-03-28T22:47:58.824Z,0
2016-03-28T22:48:58.984Z,0
2016-03-28T22:49:58.986Z,0
2016-03-28T22:50:58.990Z,0
2016-03-28T22:51:58.992Z,0
2016-03-28T22:52:58.995Z,0
2016-03-28T22:53:58.998Z,0
2016-03-28T22:54:58.984Z,0
2016-03-28T22:55:58.987Z,0
2016-03-28T22:56:58.990Z,0
2016-03-28T22:57:58.992Z,0
2016-03-28T22:58:58.995Z,0
2016-03-28T22:59:58.981Z,0
2016-03-28T23:00:59.032Z,0
2016-03-28T23:01:59.003Z,0
2016-03-28T23:02:58.990Z,0
2016-03-28T23:03:58.993Z,0
2016-03-28T23:04:58.980Z,0
2016-03-28T23:05:58.998Z,0
2016-03-28T23:06:59.017Z,0
2016-03-28T23:07:59.003Z,0
2016-03-28T23:08:59.006Z,0
2016-03-28T23:09:58.994Z,0
2016-03-28T23:10:59.028Z,0
2016-03-28T23:11:58.999Z,0
2016-03-28T23:12:59.002Z,0
2016-03-28T23:13:59.004Z,0
2016-03-28T23:14:58.851Z,0
2016-03-28T23:15:59.009Z,0
2016-03-28T23:16:58.997Z,0
2016-03-28T23:17:58.999Z,0
2016-03-28T23:18:59.001Z,0
2016-03-28T23:19:59.020Z,0
2016-03-28T23:20:59.023Z,0
2016-03-28T23:21:59.010Z,0
2016-03-28T23:22:59.029Z,0
2016-03-28T23:23:59.015Z,0
2016-03-28T23:24:59.018Z,0
2016-03-28T23:25:59.020Z,0
2016-03-28T23:26:59.009Z,0
2016-03-28T23:27:59.011Z,0
2016-03-28T23:28:59.013Z,0
2016-03-28T23:29:59.017Z,0
2016-03-28T23:30:59.003Z,0
2016-03-28T23:31:59.006Z,0
2016-03-28T23:32:59.009Z,0
2016-03-28T23:33:59.027Z,0
2016-03-28T23:34:59.061Z,0
2016-03-28T23:35:59.032Z,0
2016-03-28T23:36:59.036Z,0
2016-03-28T23:37:59.006Z,0
2016-03-28T23:38:59.008Z,0
2016-03-28T23:39:59.011Z,0
2016-03-28T23:40:59.014Z,0
2016-03-28T23:41:59.016Z,0
2016-03-28T23:42:59.020Z,0
2016-03-28T23:43:59.038Z,0
2016-03-28T23:44:59.025Z,0
2016-03-28T23:45:59.027Z,0
2016-03-28T23:46:59.030Z,0
2016-03-28T23:47:59.033Z,0
2016-03-28T23:48:59.035Z,0
2016-03-28T23:49:59.023Z,0
2016-03-28T23:50:59.026Z,0
2016-03-28T23:51:59.028Z,0
2016-03-28T23:52:59.031Z,0
2016-03-28T23:53:59.034Z,0
2016-03-28T23:54:59.037Z,0
2016-03-28T23:55:59.086Z,0
2016-03-28T23:56:59.026Z,0
2016-03-28T23:57:59.012Z,0
2016-03-28T23:58:59.031Z,0
2016-03-28T23:59:59.034Z,0
